createdAt,value
2018-12-02T00:00:42.042Z,19.1
2018-12-02T00:01:42.011Z,19.1
2018-12-02T00:02:42.125Z,19.09
2018-12-02T00:03:42.024Z,19.08
2018-12-02T00:04:42.055Z,19.07
2018-12-02T00:05:42.162Z,19.07
2018-12-02T00:06:42.009Z,19.06
2018-12-02T00:07:42.979Z,19.08
2018-12-02T00:08:42.168Z,19.07
2018-12-02T00:09:41.972Z,19.09
2018-12-02T00:10:42.039Z,19.06
2018-12-02T00:11:42.082Z,19.06
2018-12-02T00:12:41.913Z,19.07
2018-12-02T00:13:41.874Z,19.07
2018-12-02T00:14:41.904Z,19.06
2018-12-02T00:15:42.148Z,19.05
2018-12-02T00:16:42.045Z,19.06
2018-12-02T00:17:41.895Z,19.05
2018-12-02T00:18:42.309Z,19.02
2018-12-02T00:19:41.870Z,19.01
2018-12-02T00:20:42.072Z,19.05
2018-12-02T00:21:41.816Z,19.01
2018-12-02T00:22:41.867Z,19.02
2018-12-02T00:23:42.241Z,19.02
2018-12-02T00:24:42.023Z,19.01
2018-12-02T00:25:42.550Z,19.01
2018-12-02T00:26:42.334Z,19.02
2018-12-02T00:27:42.294Z,19.01
2018-12-02T00:28:41.822Z,19
2018-12-02T00:29:42.084Z,18.99
2018-12-02T00:30:42.005Z,19.01
2018-12-02T00:31:42.706Z,19.01
2018-12-02T00:32:42.050Z,19
2018-12-02T00:33:41.976Z,18.98
2018-12-02T00:34:41.974Z,18.98
2018-12-02T00:35:42.277Z,19
2018-12-02T00:36:42.006Z,18.97
2018-12-02T00:37:41.916Z,18.98
2018-12-02T00:38:42.142Z,18.98
2018-12-02T00:39:41.824Z,18.97
2018-12-02T00:40:42.104Z,18.96
2018-12-02T00:41:42.043Z,18.96
2018-12-02T00:42:42.052Z,18.97
2018-12-02T00:43:42.035Z,18.96
2018-12-02T00:44:42.415Z,18.96
2018-12-02T00:45:41.905Z,18.95
2018-12-02T00:46:42.224Z,18.94
2018-12-02T00:47:42.047Z,18.95
2018-12-02T00:48:41.893Z,18.94
2018-12-02T00:49:41.956Z,18.94
2018-12-02T00:50:42.133Z,18.94
2018-12-02T00:51:41.881Z,18.94
2018-12-02T00:52:42.218Z,18.94
2018-12-02T00:53:41.810Z,18.92
2018-12-02T00:54:42.199Z,18.92
2018-12-02T00:55:41.984Z,18.92
2018-12-02T00:56:42.025Z,18.93
2018-12-02T00:57:42.132Z,18.94
2018-12-02T00:58:41.854Z,18.92
2018-12-02T00:59:41.969Z,18.91
2018-12-02T01:00:41.918Z,18.89
2018-12-02T01:01:42.149Z,18.89
2018-12-02T01:02:41.881Z,18.88
2018-12-02T01:03:41.769Z,18.91
2018-12-02T01:04:42.052Z,18.91
2018-12-02T01:05:41.967Z,18.91
2018-12-02T01:06:42.055Z,18.89
2018-12-02T01:07:41.837Z,18.88
2018-12-02T01:08:42.003Z,18.89
2018-12-02T01:09:42.031Z,18.89
2018-12-02T01:10:41.855Z,18.88
2018-12-02T01:11:41.783Z,18.88
2018-12-02T01:12:41.910Z,18.87
2018-12-02T01:13:42.080Z,18.85
2018-12-02T01:14:41.862Z,18.86
2018-12-02T01:15:42.077Z,18.85
2018-12-02T01:16:41.889Z,18.86
2018-12-02T01:17:42.064Z,18.86
2018-12-02T01:18:41.847Z,18.86
2018-12-02T01:19:42.159Z,18.86
2018-12-02T01:20:41.911Z,18.85
2018-12-02T01:21:41.830Z,18.84
2018-12-02T01:22:41.761Z,18.86
2018-12-02T01:23:41.885Z,18.84
2018-12-02T01:24:42.098Z,18.84
2018-12-02T01:25:42.142Z,18.85
2018-12-02T01:26:42.292Z,18.82
2018-12-02T01:27:41.914Z,18.83
2018-12-02T01:28:42.064Z,18.82
2018-12-02T01:29:41.809Z,18.82
2018-12-02T01:30:42.219Z,18.81
2018-12-02T01:31:41.904Z,18.82
2018-12-02T01:32:41.910Z,18.83
2018-12-02T01:33:42.204Z,18.83
2018-12-02T01:34:42.148Z,18.82
2018-12-02T01:35:41.962Z,18.82
2018-12-02T01:36:42.704Z,18.8
2018-12-02T01:37:41.937Z,18.81
2018-12-02T01:38:41.880Z,18.8
2018-12-02T01:39:41.776Z,18.8
2018-12-02T01:40:41.776Z,18.81
2018-12-02T01:41:41.892Z,18.81
2018-12-02T01:42:41.995Z,18.79
2018-12-02T01:43:41.798Z,18.8
2018-12-02T01:44:42.130Z,18.79
2018-12-02T01:45:42.077Z,18.8
2018-12-02T01:46:41.903Z,18.77
2018-12-02T01:47:41.788Z,18.81
2018-12-02T01:48:41.769Z,18.77
2018-12-02T01:49:42.022Z,18.78
2018-12-02T01:50:41.872Z,18.77
2018-12-02T01:51:42.261Z,18.77
2018-12-02T01:52:42.146Z,18.8
2018-12-02T01:53:42.314Z,18.79
2018-12-02T01:54:41.790Z,18.78
2018-12-02T01:55:42.002Z,18.76
2018-12-02T01:56:42.117Z,18.74
2018-12-02T01:57:42.221Z,18.77
2018-12-02T01:58:41.990Z,18.77
2018-12-02T01:59:41.863Z,18.76
2018-12-02T02:00:41.948Z,18.76
2018-12-02T02:01:42.145Z,18.76
2018-12-02T02:02:42.037Z,18.74
2018-12-02T02:03:41.863Z,18.73
2018-12-02T02:04:41.917Z,18.74
2018-12-02T02:05:42.195Z,18.73
2018-12-02T02:06:41.803Z,18.72
2018-12-02T02:07:41.921Z,18.72
2018-12-02T02:08:41.890Z,18.72
2018-12-02T02:09:42.210Z,18.73
2018-12-02T02:10:41.797Z,18.72
2018-12-02T02:11:41.785Z,18.74
2018-12-02T02:12:42.239Z,18.72
2018-12-02T02:13:41.925Z,18.73
2018-12-02T02:14:41.961Z,18.72
2018-12-02T02:15:42.026Z,18.72
2018-12-02T02:16:42.383Z,18.71
2018-12-02T02:17:42.211Z,18.71
2018-12-02T02:18:42.199Z,18.69
2018-12-02T02:19:41.847Z,18.69
2018-12-02T02:20:41.831Z,18.71
2018-12-02T02:21:41.847Z,18.7
2018-12-02T02:22:42.036Z,18.7
2018-12-02T02:23:42.310Z,18.71
2018-12-02T02:24:42.122Z,18.69
2018-12-02T02:25:41.968Z,18.69
2018-12-02T02:26:42.053Z,18.69
2018-12-02T02:27:42.329Z,18.69
2018-12-02T02:28:41.941Z,18.69
2018-12-02T02:29:41.866Z,18.71
2018-12-02T02:30:41.831Z,18.69
2018-12-02T02:31:42.244Z,18.68
2018-12-02T02:32:42.001Z,18.68
2018-12-02T02:33:41.987Z,18.68
2018-12-02T02:34:42.518Z,18.67
2018-12-02T02:35:41.861Z,18.67
2018-12-02T02:36:42.236Z,18.7
2018-12-02T02:37:41.803Z,18.66
2018-12-02T02:38:41.850Z,18.66
2018-12-02T02:39:42.028Z,18.65
2018-12-02T02:40:41.866Z,18.66
2018-12-02T02:41:42.028Z,18.66
2018-12-02T02:42:41.901Z,18.67
2018-12-02T02:43:41.952Z,18.64
2018-12-02T02:44:41.838Z,18.67
2018-12-02T02:45:42.007Z,18.65
2018-12-02T02:46:41.821Z,18.66
2018-12-02T02:47:41.944Z,18.65
2018-12-02T02:48:41.787Z,18.65
2018-12-02T02:49:41.908Z,18.64
2018-12-02T02:50:42.055Z,18.65
2018-12-02T02:51:41.818Z,18.64
2018-12-02T02:52:42.212Z,18.63
2018-12-02T02:53:41.837Z,18.65
2018-12-02T02:54:41.859Z,18.63
2018-12-02T02:55:41.718Z,18.63
2018-12-02T02:56:41.763Z,18.63
2018-12-02T02:57:41.982Z,18.62
2018-12-02T02:58:41.950Z,18.62
2018-12-02T02:59:41.996Z,18.64
2018-12-02T03:00:41.794Z,18.61
2018-12-02T03:01:41.888Z,18.59
2018-12-02T03:02:41.747Z,18.62
2018-12-02T03:03:42.202Z,18.64
2018-12-02T03:04:42.096Z,18.62
2018-12-02T03:05:41.783Z,18.62
2018-12-02T03:06:42.305Z,18.61
2018-12-02T03:07:41.868Z,18.59
2018-12-02T03:08:42.882Z,18.59
2018-12-02T03:09:41.914Z,18.59
2018-12-02T03:10:42.251Z,18.61
2018-12-02T03:11:42.203Z,18.59
2018-12-02T03:12:42.270Z,18.59
2018-12-02T03:13:42.180Z,18.59
2018-12-02T03:14:42.844Z,18.59
2018-12-02T03:15:41.982Z,18.61
2018-12-02T03:16:41.892Z,18.59
2018-12-02T03:17:42.014Z,18.58
2018-12-02T03:18:42.003Z,18.59
2018-12-02T03:19:41.728Z,18.57
2018-12-02T03:20:41.610Z,18.58
2018-12-02T03:21:41.879Z,18.56
2018-12-02T03:22:42.118Z,18.61
2018-12-02T03:23:42.135Z,18.57
2018-12-02T03:24:42.581Z,18.56
2018-12-02T03:25:41.861Z,18.55
2018-12-02T03:26:41.786Z,18.57
2018-12-02T03:27:41.732Z,18.57
2018-12-02T03:28:42.068Z,18.57
2018-12-02T03:29:42.008Z,18.56
2018-12-02T03:30:42.189Z,18.57
2018-12-02T03:31:41.907Z,18.57
2018-12-02T03:32:42.096Z,18.54
2018-12-02T03:33:42.232Z,18.54
2018-12-02T03:34:41.747Z,18.55
2018-12-02T03:35:42.160Z,18.54
2018-12-02T03:36:41.727Z,18.55
2018-12-02T03:37:41.879Z,18.54
2018-12-02T03:38:42.180Z,18.55
2018-12-02T03:39:41.928Z,18.54
2018-12-02T03:40:41.995Z,18.54
2018-12-02T03:41:42.096Z,18.54
2018-12-02T03:42:42.343Z,18.54
2018-12-02T03:43:42.072Z,18.54
2018-12-02T03:44:41.913Z,18.53
2018-12-02T03:45:41.895Z,18.55
2018-12-02T03:46:41.991Z,18.53
2018-12-02T03:47:42.064Z,18.55
2018-12-02T03:48:41.771Z,18.53
2018-12-02T03:49:42.213Z,18.5
2018-12-02T03:50:42.276Z,18.53
2018-12-02T03:51:42.235Z,18.52
2018-12-02T03:52:41.969Z,18.53
2018-12-02T03:53:41.878Z,18.51
2018-12-02T03:54:42.139Z,18.52
2018-12-02T03:55:41.751Z,18.53
2018-12-02T03:56:42.383Z,18.53
2018-12-02T03:57:41.865Z,18.5
2018-12-02T03:58:42.009Z,18.53
2018-12-02T03:59:41.737Z,18.5
2018-12-02T04:00:42.249Z,18.51
2018-12-02T04:01:42.170Z,18.5
2018-12-02T04:02:42.113Z,18.49
2018-12-02T04:03:42.343Z,18.5
2018-12-02T04:04:41.830Z,18.52
2018-12-02T04:05:42.122Z,18.52
2018-12-02T04:06:42.020Z,18.49
2018-12-02T04:07:41.993Z,18.5
2018-12-02T04:08:41.757Z,18.49
2018-12-02T04:09:42.624Z,18.51
2018-12-02T04:10:41.714Z,18.5
2018-12-02T04:11:41.993Z,18.48
2018-12-02T04:12:42.277Z,18.48
2018-12-02T04:13:42.387Z,18.49
2018-12-02T04:14:42.289Z,18.5
2018-12-02T04:15:42.107Z,18.49
2018-12-02T04:16:41.992Z,18.49
2018-12-02T04:17:41.827Z,18.48
2018-12-02T04:18:41.647Z,18.48
2018-12-02T04:19:42.339Z,18.49
2018-12-02T04:20:42.131Z,18.49
2018-12-02T04:21:41.931Z,18.47
2018-12-02T04:22:41.763Z,18.49
2018-12-02T04:23:41.852Z,18.49
2018-12-02T04:24:42.820Z,18.49
2018-12-02T04:25:42.075Z,18.47
2018-12-02T04:26:41.714Z,18.48
2018-12-02T04:27:41.715Z,18.47
2018-12-02T04:28:41.929Z,18.49
2018-12-02T04:29:42.104Z,18.46
2018-12-02T04:30:41.894Z,18.47
2018-12-02T04:31:41.893Z,18.46
2018-12-02T04:32:41.890Z,18.46
2018-12-02T04:33:41.768Z,18.47
2018-12-02T04:34:41.793Z,18.48
2018-12-02T04:35:41.930Z,18.44
2018-12-02T04:36:41.740Z,18.47
2018-12-02T04:37:41.873Z,18.44
2018-12-02T04:38:41.856Z,18.47
2018-12-02T04:39:41.908Z,18.44
2018-12-02T04:40:41.824Z,18.46
2018-12-02T04:41:41.944Z,18.46
2018-12-02T04:42:41.667Z,18.46
2018-12-02T04:43:41.875Z,18.44
2018-12-02T04:44:42.046Z,18.44
2018-12-02T04:45:41.707Z,18.46
2018-12-02T04:46:42.218Z,18.48
2018-12-02T04:47:41.803Z,18.48
2018-12-02T04:48:42.214Z,18.49
2018-12-02T04:49:41.936Z,18.48
2018-12-02T04:50:42.145Z,18.49
2018-12-02T04:51:41.773Z,18.49
2018-12-02T04:52:42.290Z,18.49
2018-12-02T04:53:41.944Z,18.5
2018-12-02T04:54:41.820Z,18.5
2018-12-02T04:55:41.979Z,18.5
2018-12-02T04:56:41.718Z,18.52
2018-12-02T04:57:41.848Z,18.5
2018-12-02T04:58:41.730Z,18.53
2018-12-02T04:59:41.787Z,18.56
2018-12-02T05:00:42.043Z,18.54
2018-12-02T05:01:41.856Z,18.55
2018-12-02T05:02:42.518Z,18.58
2018-12-02T05:03:41.932Z,18.59
2018-12-02T05:04:42.312Z,18.59
2018-12-02T05:05:41.827Z,18.59
2018-12-02T05:06:41.940Z,18.62
2018-12-02T05:07:42.107Z,18.64
2018-12-02T05:08:42.060Z,18.65
2018-12-02T05:09:42.013Z,18.66
2018-12-02T05:10:41.834Z,18.68
2018-12-02T05:11:41.950Z,18.69
2018-12-02T05:12:43.261Z,18.69
2018-12-02T05:13:41.907Z,18.69
2018-12-02T05:14:41.674Z,18.73
2018-12-02T05:15:41.843Z,18.72
2018-12-02T05:16:42.059Z,18.74
2018-12-02T05:17:41.818Z,18.78
2018-12-02T05:18:42.245Z,18.77
2018-12-02T05:19:41.869Z,18.8
2018-12-02T05:20:41.956Z,18.81
2018-12-02T05:21:42.040Z,18.8
2018-12-02T05:22:41.867Z,18.81
2018-12-02T05:23:41.753Z,18.83
2018-12-02T05:24:41.870Z,18.84
2018-12-02T05:25:42.226Z,18.84
2018-12-02T05:26:41.704Z,18.85
2018-12-02T05:27:43.117Z,18.87
2018-12-02T05:28:41.706Z,18.89
2018-12-02T05:29:41.932Z,18.89
2018-12-02T05:30:41.719Z,18.91
2018-12-02T05:31:42.239Z,18.91
2018-12-02T05:32:42.114Z,18.93
2018-12-02T05:33:42.237Z,18.95
2018-12-02T05:34:41.939Z,18.96
2018-12-02T05:35:41.818Z,18.96
2018-12-02T05:36:42.063Z,18.98
2018-12-02T05:37:41.695Z,19.01
2018-12-02T05:38:41.941Z,18.99
2018-12-02T05:39:41.679Z,19
2018-12-02T05:40:42.003Z,19.02
2018-12-02T05:41:42.057Z,19.02
2018-12-02T05:42:41.737Z,19.03
2018-12-02T05:43:42.069Z,19.06
2018-12-02T05:44:42.351Z,19.07
2018-12-02T05:45:42.134Z,19.09
2018-12-02T05:46:41.860Z,19.07
2018-12-02T05:47:41.861Z,19.09
2018-12-02T05:48:41.755Z,19.11
2018-12-02T05:49:41.700Z,19.12
2018-12-02T05:50:42.385Z,19.13
2018-12-02T05:51:41.819Z,19.12
2018-12-02T05:52:41.845Z,19.13
2018-12-02T05:53:41.808Z,19.16
2018-12-02T05:54:42.211Z,19.16
2018-12-02T05:55:41.793Z,19.15
2018-12-02T05:56:41.812Z,19.17
2018-12-02T05:57:41.651Z,19.2
2018-12-02T05:58:41.657Z,19.21
2018-12-02T05:59:41.934Z,19.2
2018-12-02T06:00:41.793Z,19.21
2018-12-02T06:01:41.930Z,19.22
2018-12-02T06:02:41.802Z,19.23
2018-12-02T06:03:41.921Z,19.23
2018-12-02T06:04:41.775Z,19.22
2018-12-02T06:05:41.845Z,19.23
2018-12-02T06:06:41.700Z,19.23
2018-12-02T06:07:41.813Z,19.26
2018-12-02T06:08:42.309Z,19.26
2018-12-02T06:09:41.730Z,19.26
2018-12-02T06:10:41.847Z,19.26
2018-12-02T06:11:44.019Z,19.29
2018-12-02T06:12:41.894Z,19.29
2018-12-02T06:13:41.922Z,19.29
2018-12-02T06:14:41.853Z,19.3
2018-12-02T06:15:41.941Z,19.28
2018-12-02T06:16:41.644Z,19.31
2018-12-02T06:17:41.858Z,19.31
2018-12-02T06:18:41.811Z,19.33
2018-12-02T06:19:41.901Z,19.35
2018-12-02T06:20:42.011Z,19.32
2018-12-02T06:21:42.171Z,19.33
2018-12-02T06:22:41.653Z,19.33
2018-12-02T06:23:41.729Z,19.35
2018-12-02T06:24:41.874Z,19.36
2018-12-02T06:25:46.778Z,19.36
2018-12-02T06:26:42.010Z,19.37
2018-12-02T06:27:41.746Z,19.38
2018-12-02T06:28:41.802Z,19.39
2018-12-02T06:29:42.034Z,19.4
2018-12-02T06:30:41.793Z,19.4
2018-12-02T06:31:42.086Z,19.39
2018-12-02T06:32:41.679Z,19.38
2018-12-02T06:33:42.174Z,19.41
2018-12-02T06:34:42.121Z,19.4
2018-12-02T06:35:41.895Z,19.41
2018-12-02T06:36:41.907Z,19.42
2018-12-02T06:37:41.923Z,19.41
2018-12-02T06:38:41.876Z,19.42
2018-12-02T06:39:41.718Z,19.43
2018-12-02T06:40:42.096Z,19.44
2018-12-02T06:41:41.806Z,19.45
2018-12-02T06:42:41.934Z,19.45
2018-12-02T06:43:41.662Z,19.46
2018-12-02T06:44:41.946Z,19.46
2018-12-02T06:45:41.782Z,19.48
2018-12-02T06:46:41.802Z,19.47
2018-12-02T06:47:41.746Z,19.47
2018-12-02T06:48:41.966Z,19.48
2018-12-02T06:49:41.930Z,19.5
2018-12-02T06:50:41.866Z,19.5
2018-12-02T06:51:42.085Z,19.52
2018-12-02T06:52:42.288Z,19.5
2018-12-02T06:53:41.876Z,19.54
2018-12-02T06:54:41.656Z,19.51
2018-12-02T06:55:42.152Z,19.51
2018-12-02T06:56:42.113Z,19.5
2018-12-02T06:57:41.734Z,19.52
2018-12-02T06:58:42.141Z,19.54
2018-12-02T06:59:41.808Z,19.52
2018-12-02T07:00:42.071Z,19.54
2018-12-02T07:01:41.914Z,19.55
2018-12-02T07:02:42.133Z,19.54
2018-12-02T07:03:41.890Z,19.56
2018-12-02T07:04:41.725Z,19.55
2018-12-02T07:05:41.877Z,19.56
2018-12-02T07:06:41.766Z,19.55
2018-12-02T07:07:41.804Z,19.56
2018-12-02T07:08:41.705Z,19.56
2018-12-02T07:09:41.817Z,19.57
2018-12-02T07:10:41.941Z,19.56
2018-12-02T07:11:41.755Z,19.57
2018-12-02T07:12:41.617Z,19.57
2018-12-02T07:13:41.775Z,19.58
2018-12-02T07:14:42.178Z,19.59
2018-12-02T07:15:41.691Z,19.58
2018-12-02T07:16:42.006Z,19.59
2018-12-02T07:17:41.744Z,19.58
2018-12-02T07:18:42.065Z,19.58
2018-12-02T07:19:41.715Z,19.59
2018-12-02T07:20:42.737Z,19.59
2018-12-02T07:21:42.309Z,19.59
2018-12-02T07:22:41.916Z,19.61
2018-12-02T07:23:42.158Z,19.6
2018-12-02T07:24:41.719Z,19.6
2018-12-02T07:25:42.130Z,19.61
2018-12-02T07:26:41.988Z,19.63
2018-12-02T07:27:41.744Z,19.63
2018-12-02T07:28:41.953Z,19.61
2018-12-02T07:29:41.710Z,19.62
2018-12-02T07:30:41.918Z,19.63
2018-12-02T07:31:41.727Z,19.63
2018-12-02T07:32:41.918Z,19.65
2018-12-02T07:33:42.096Z,19.62
2018-12-02T07:34:42.720Z,19.62
2018-12-02T07:35:41.919Z,19.66
2018-12-02T07:36:41.701Z,19.65
2018-12-02T07:37:41.570Z,19.67
2018-12-02T07:38:41.814Z,19.67
2018-12-02T07:39:41.732Z,19.67
2018-12-02T07:40:41.640Z,19.67
2018-12-02T07:41:41.871Z,19.67
2018-12-02T07:42:41.741Z,19.67
2018-12-02T07:43:41.731Z,19.69
2018-12-02T07:44:42.282Z,19.69
2018-12-02T07:45:41.802Z,19.67
2018-12-02T07:46:41.640Z,19.69
2018-12-02T07:47:41.777Z,19.69
2018-12-02T07:48:41.834Z,19.69
2018-12-02T07:49:41.703Z,19.69
2018-12-02T07:50:41.929Z,19.71
2018-12-02T07:51:41.737Z,19.71
2018-12-02T07:52:41.833Z,19.71
2018-12-02T07:53:41.905Z,19.73
2018-12-02T07:54:41.678Z,19.7
2018-12-02T07:55:41.835Z,19.74
2018-12-02T07:56:41.696Z,19.73
2018-12-02T07:57:41.746Z,19.72
2018-12-02T07:58:41.912Z,19.73
2018-12-02T07:59:41.804Z,19.74
2018-12-02T08:00:41.806Z,19.73
2018-12-02T08:01:41.775Z,19.73
2018-12-02T08:02:42.043Z,19.75
2018-12-02T08:03:41.693Z,19.73
2018-12-02T08:04:42.035Z,19.75
2018-12-02T08:05:42.266Z,19.75
2018-12-02T08:06:41.710Z,19.76
2018-12-02T08:07:42.152Z,19.75
2018-12-02T08:08:41.686Z,19.75
2018-12-02T08:09:42.181Z,19.77
2018-12-02T08:10:41.731Z,19.75
2018-12-02T08:11:41.849Z,19.76
2018-12-02T08:12:41.920Z,19.74
2018-12-02T08:13:41.685Z,19.77
2018-12-02T08:14:41.975Z,19.77
2018-12-02T08:15:41.684Z,19.76
2018-12-02T08:16:42.046Z,19.75
2018-12-02T08:17:41.717Z,19.76
2018-12-02T08:18:42.034Z,19.81
2018-12-02T08:19:41.761Z,19.8
2018-12-02T08:20:41.816Z,19.79
2018-12-02T08:21:41.710Z,19.77
2018-12-02T08:22:41.594Z,19.79
2018-12-02T08:23:42.058Z,19.81
2018-12-02T08:24:41.615Z,19.81
2018-12-02T08:25:41.764Z,19.8
2018-12-02T08:26:41.658Z,19.79
2018-12-02T08:27:41.730Z,19.8
2018-12-02T08:28:41.890Z,19.8
2018-12-02T08:29:41.688Z,19.81
2018-12-02T08:30:42.195Z,19.82
2018-12-02T08:31:42.082Z,19.81
2018-12-02T08:32:41.912Z,19.82
2018-12-02T08:33:41.758Z,19.81
2018-12-02T08:34:42.071Z,19.82
2018-12-02T08:35:41.854Z,19.85
2018-12-02T08:36:41.865Z,19.83
2018-12-02T08:37:42.254Z,19.83
2018-12-02T08:38:41.771Z,19.82
2018-12-02T08:39:42.054Z,19.82
2018-12-02T08:40:41.621Z,19.82
2018-12-02T08:41:42.070Z,19.83
2018-12-02T08:42:42.012Z,19.83
2018-12-02T08:43:42.187Z,19.85
2018-12-02T08:44:42.142Z,19.84
2018-12-02T08:45:42.107Z,19.84
2018-12-02T08:46:41.765Z,19.83
2018-12-02T08:47:41.784Z,19.84
2018-12-02T08:48:42.101Z,19.83
2018-12-02T08:49:43.555Z,19.85
2018-12-02T08:50:41.908Z,19.86
2018-12-02T08:51:41.925Z,19.84
2018-12-02T08:52:41.735Z,19.85
2018-12-02T08:53:41.931Z,19.86
2018-12-02T08:54:41.825Z,19.84
2018-12-02T08:55:42.171Z,19.85
2018-12-02T08:56:41.849Z,19.87
2018-12-02T08:57:41.726Z,19.87
2018-12-02T08:58:41.711Z,19.88
2018-12-02T08:59:41.990Z,19.87
2018-12-02T09:00:41.902Z,19.89
2018-12-02T09:01:41.641Z,19.89
2018-12-02T09:02:41.878Z,19.9
2018-12-02T09:03:42.062Z,19.92
2018-12-02T09:04:42.130Z,19.91
2018-12-02T09:05:42.063Z,19.95
2018-12-02T09:06:41.785Z,19.95
2018-12-02T09:07:42.213Z,19.96
2018-12-02T09:08:41.966Z,19.96
2018-12-02T09:09:42.072Z,19.98
2018-12-02T09:10:41.700Z,19.98
2018-12-02T09:11:41.969Z,19.96
2018-12-02T09:12:41.638Z,19.98
2018-12-02T09:13:41.733Z,19.99
2018-12-02T09:14:41.808Z,19.99
2018-12-02T09:15:42.581Z,20
2018-12-02T09:16:42.041Z,20.04
2018-12-02T09:17:41.684Z,20.03
2018-12-02T09:18:41.889Z,20.03
2018-12-02T09:19:41.728Z,20.04
2018-12-02T09:20:41.782Z,20.07
2018-12-02T09:21:41.740Z,20.06
2018-12-02T09:22:41.647Z,20.07
2018-12-02T09:23:47.854Z,20.09
2018-12-02T09:24:41.654Z,20.1
2018-12-02T09:25:41.769Z,20.11
2018-12-02T09:26:41.760Z,20.12
2018-12-02T09:27:41.922Z,20.12
2018-12-02T09:28:41.823Z,20.13
2018-12-02T09:29:41.709Z,20.15
2018-12-02T09:30:41.876Z,20.16
2018-12-02T09:31:41.796Z,20.16
2018-12-02T09:32:41.714Z,20.16
2018-12-02T09:33:41.659Z,20.16
2018-12-02T09:34:41.643Z,20.17
2018-12-02T09:35:41.756Z,20.17
2018-12-02T09:36:41.937Z,20.16
2018-12-02T09:37:41.762Z,20.15
2018-12-02T09:38:42.490Z,20.16
2018-12-02T09:39:41.721Z,20.16
2018-12-02T09:40:41.557Z,20.16
2018-12-02T09:41:41.797Z,20.17
2018-12-02T09:42:41.920Z,20.16
2018-12-02T09:43:41.742Z,20.16
2018-12-02T09:44:42.152Z,20.16
2018-12-02T09:45:42.219Z,20.17
2018-12-02T09:46:41.748Z,20.16
2018-12-02T09:47:41.781Z,20.17
2018-12-02T09:48:42.195Z,20.18
2018-12-02T09:49:41.695Z,20.16
2018-12-02T09:50:42.004Z,20.16
2018-12-02T09:51:41.552Z,20.17
2018-12-02T09:52:42.137Z,20.18
2018-12-02T09:53:41.876Z,20.18
2018-12-02T09:54:41.664Z,20.16
2018-12-02T09:55:42.181Z,20.16
2018-12-02T09:56:42.028Z,20.16
2018-12-02T09:57:42.091Z,20.16
2018-12-02T09:58:41.809Z,20.17
2018-12-02T09:59:41.820Z,20.15
2018-12-02T10:00:41.926Z,20.16
2018-12-02T10:01:41.639Z,20.14
2018-12-02T10:02:41.842Z,20.15
2018-12-02T10:03:41.686Z,20.14
2018-12-02T10:04:41.779Z,20.15
2018-12-02T10:05:42.501Z,20.15
2018-12-02T10:06:42.833Z,20.15
2018-12-02T10:07:41.700Z,20.15
2018-12-02T10:08:41.715Z,20.13
2018-12-02T10:09:42.266Z,20.13
2018-12-02T10:10:41.737Z,20.16
2018-12-02T10:11:41.723Z,20.14
2018-12-02T10:12:44.984Z,20.13
2018-12-02T10:13:41.921Z,20.14
2018-12-02T10:14:41.834Z,20.13
2018-12-02T10:15:42.059Z,20.16
2018-12-02T10:16:41.702Z,20.13
2018-12-02T10:17:41.805Z,20.13
2018-12-02T10:18:41.644Z,20.15
2018-12-02T10:19:41.879Z,20.14
2018-12-02T10:20:41.699Z,20.13
2018-12-02T10:21:42.107Z,20.16
2018-12-02T10:22:41.752Z,20.17
2018-12-02T10:23:42.346Z,20.16
2018-12-02T10:24:41.813Z,20.19
2018-12-02T10:25:41.660Z,20.18
2018-12-02T10:26:41.739Z,20.2
2018-12-02T10:27:41.797Z,20.19
2018-12-02T10:28:43.037Z,20.18
2018-12-02T10:29:41.872Z,20.19
2018-12-02T10:30:41.843Z,20.22
2018-12-02T10:31:42.048Z,20.2
2018-12-02T10:32:42.983Z,20.2
2018-12-02T10:33:41.808Z,20.21
2018-12-02T10:34:42.356Z,20.25
2018-12-02T10:35:42.057Z,20.22
2018-12-02T10:36:42.697Z,20.24
2018-12-02T10:37:41.816Z,20.25
2018-12-02T10:38:41.951Z,20.25
2018-12-02T10:39:41.636Z,20.27
2018-12-02T10:40:42.166Z,20.27
2018-12-02T10:41:41.624Z,20.27
2018-12-02T10:42:41.974Z,20.27
2018-12-02T10:43:41.875Z,20.24
2018-12-02T10:44:41.820Z,20.27
2018-12-02T10:45:41.830Z,20.27
2018-12-02T10:46:44.505Z,20.28
2018-12-02T10:47:41.745Z,20.29
2018-12-02T10:48:42.096Z,20.3
2018-12-02T10:49:41.758Z,20.3
2018-12-02T10:50:41.814Z,20.3
2018-12-02T10:51:41.655Z,20.29
2018-12-02T10:52:41.765Z,20.28
2018-12-02T10:53:42.159Z,20.29
2018-12-02T10:54:41.803Z,20.3
2018-12-02T10:55:41.688Z,20.3
2018-12-02T10:56:41.695Z,20.3
2018-12-02T10:57:41.793Z,20.29
2018-12-02T10:58:41.722Z,20.28
2018-12-02T10:59:41.832Z,20.3
2018-12-02T11:00:41.725Z,20.3
2018-12-02T11:01:42.208Z,20.28
2018-12-02T11:02:41.995Z,20.31
2018-12-02T11:03:42.831Z,20.31
2018-12-02T11:04:42.537Z,20.33
2018-12-02T11:05:43.837Z,20.32
2018-12-02T11:06:43.034Z,20.34
2018-12-02T11:07:43.023Z,20.33
2018-12-02T11:08:42.999Z,20.34
2018-12-02T11:09:43.375Z,20.34
2018-12-02T11:10:42.440Z,20.34
2018-12-02T11:11:42.553Z,20.34
2018-12-02T11:12:43.579Z,20.35
2018-12-02T11:13:42.678Z,20.34
2018-12-02T11:14:42.243Z,20.39
2018-12-02T11:15:41.849Z,20.37
2018-12-02T11:16:45.024Z,20.35
2018-12-02T11:17:42.832Z,20.39
2018-12-02T11:18:42.337Z,20.37
2018-12-02T11:19:42.648Z,20.37
2018-12-02T11:20:42.861Z,20.37
2018-12-02T11:21:41.851Z,20.41
2018-12-02T11:22:42.381Z,20.42
2018-12-02T11:23:43.331Z,20.43
2018-12-02T11:24:42.408Z,20.41
2018-12-02T11:25:41.914Z,20.42
2018-12-02T11:26:42.181Z,20.44
2018-12-02T11:27:41.946Z,20.43
2018-12-02T11:28:42.048Z,20.46
2018-12-02T11:29:43.042Z,20.48
2018-12-02T11:30:41.782Z,20.53
2018-12-02T11:31:41.630Z,20.5
2018-12-02T11:32:41.777Z,20.49
2018-12-02T11:33:41.776Z,20.51
2018-12-02T11:34:41.593Z,20.51
2018-12-02T11:35:41.753Z,20.51
2018-12-02T11:36:41.801Z,20.5
2018-12-02T11:37:41.690Z,20.5
2018-12-02T11:38:41.603Z,20.51
2018-12-02T11:39:41.913Z,20.53
2018-12-02T11:40:41.936Z,20.51
2018-12-02T11:41:41.705Z,20.53
2018-12-02T11:42:41.742Z,20.54
2018-12-02T11:43:41.936Z,20.53
2018-12-02T11:44:41.841Z,20.53
2018-12-02T11:45:41.977Z,20.55
2018-12-02T11:46:41.807Z,20.53
2018-12-02T11:47:41.567Z,20.53
2018-12-02T11:48:42.741Z,20.54
2018-12-02T11:49:42.437Z,20.54
2018-12-02T11:50:41.911Z,20.55
2018-12-02T11:51:41.978Z,20.53
2018-12-02T11:52:42.286Z,20.53
2018-12-02T11:53:42.075Z,20.53
2018-12-02T11:54:41.795Z,20.53
2018-12-02T11:55:42.101Z,20.55
2018-12-02T11:56:41.659Z,20.53
2018-12-02T11:57:41.690Z,20.56
2018-12-02T11:58:41.692Z,20.53
2018-12-02T11:59:41.821Z,20.53
2018-12-02T12:00:41.850Z,20.55
2018-12-02T12:01:41.715Z,20.54
2018-12-02T12:02:41.822Z,20.55
2018-12-02T12:03:41.530Z,20.55
2018-12-02T12:04:41.754Z,20.54
2018-12-02T12:05:41.727Z,20.53
2018-12-02T12:06:42.038Z,20.53
2018-12-02T12:07:42.080Z,20.53
2018-12-02T12:08:42.037Z,20.51
2018-12-02T12:09:41.914Z,20.53
2018-12-02T12:10:42.261Z,20.51
2018-12-02T12:11:41.585Z,20.5
2018-12-02T12:12:41.703Z,20.48
2018-12-02T12:13:41.706Z,20.49
2018-12-02T12:14:41.859Z,20.49
2018-12-02T12:15:41.735Z,20.48
2018-12-02T12:16:41.945Z,20.47
2018-12-02T12:17:41.963Z,20.48
2018-12-02T12:18:41.845Z,20.46
2018-12-02T12:19:42.304Z,20.48
2018-12-02T12:20:42.486Z,20.47
2018-12-02T12:21:41.530Z,20.46
2018-12-02T12:22:42.943Z,20.45
2018-12-02T12:23:41.622Z,20.45
2018-12-02T12:24:41.817Z,20.45
2018-12-02T12:25:41.701Z,20.45
2018-12-02T12:26:41.799Z,20.45
2018-12-02T12:27:41.724Z,20.44
2018-12-02T12:28:42.047Z,20.43
2018-12-02T12:29:41.846Z,20.44
2018-12-02T12:30:41.808Z,20.44
2018-12-02T12:31:41.704Z,20.42
2018-12-02T12:32:42.075Z,20.43
2018-12-02T12:33:41.838Z,20.42
2018-12-02T12:34:41.513Z,20.43
2018-12-02T12:35:41.757Z,20.44
2018-12-02T12:36:42.462Z,20.41
2018-12-02T12:37:41.701Z,20.4
2018-12-02T12:38:41.599Z,20.43
2018-12-02T12:39:41.670Z,20.39
2018-12-02T12:40:41.646Z,20.4
2018-12-02T12:41:41.618Z,20.4
2018-12-02T12:42:41.638Z,20.4
2018-12-02T12:43:41.711Z,20.41
2018-12-02T12:44:41.698Z,20.39
2018-12-02T12:45:41.710Z,20.37
2018-12-02T12:46:41.818Z,20.37
2018-12-02T12:47:41.807Z,20.37
2018-12-02T12:48:41.939Z,20.39
2018-12-02T12:49:41.786Z,20.37
2018-12-02T12:50:42.185Z,20.36
2018-12-02T12:51:41.652Z,20.35
2018-12-02T12:52:41.657Z,20.34
2018-12-02T12:53:41.715Z,20.35
2018-12-02T12:54:41.526Z,20.34
2018-12-02T12:55:42.046Z,20.34